Time;durP1;ratioP1;P1;durP2;ratioP2;P2;SDS_P1;SDS_P2;PMS_P1;PMS_P2;Temp;Humidity;BMP_temperature;BMP_pressure;BME280_temperature;BME280_humidity;BME280_pressure;Samples;Min_cycle;Max_cycle;Signal;HPM_P1;HPM_P2
2021/05/28 00:00:39;;;;;;;30.45;21.25;;;;;;;20.82;67.68;99538.75;4975811;28;20038;-70
2021/05/28 00:03:05;;;;;;;28.48;21.75;;;;;;;20.81;68.03;99543.41;4974218;28;20082;-70
2021/05/28 00:05:30;;;;;;;26.55;21.13;;;;;;;20.81;67.84;99550.81;4976627;28;20136;-69
2021/05/28 00:07:56;;;;;;;29.50;21.23;;;;;;;20.80;68.20;99547.19;4972453;28;20051;-70
2021/05/28 00:10:22;;;;;;;31.10;20.77;;;;;;;20.80;67.92;99547.19;4973400;28;20416;-70
2021/05/28 00:12:47;;;;;;;29.02;20.67;;;;;;;20.80;68.26;99541.69;4973617;28;20042;-71
2021/05/28 00:15:14;;;;;;;25.08;19.45;;;;;;;20.80;68.16;99536.19;4984644;28;20054;-71
2021/05/28 00:17:40;;;;;;;26.58;19.88;;;;;;;20.81;68.29;99532.41;4976113;28;20042;-70
2021/05/28 00:20:09;;;;;;;25.40;20.08;;;;;;;20.80;68.29;99524.34;4976939;28;20065;-71
2021/05/28 00:22:35;;;;;;;28.40;20.20;;;;;;;20.79;67.94;99523.53;4973216;28;20038;-70
2021/05/28 00:25:01;;;;;;;25.50;20.95;;;;;;;20.79;68.11;99515.28;4979792;28;20362;-69
2021/05/28 00:27:30;;;;;;;27.02;20.00;;;;;;;20.80;68.11;99516.13;4980316;28;20073;-70
2021/05/28 00:30:06;;;;;;;24.05;19.00;;;;;;;20.80;68.00;99516.94;4966793;28;20042;-71
2021/05/28 00:32:32;;;;;;;26.88;21.27;;;;;;;20.78;68.46;99513.59;4972596;28;20069;-70
2021/05/28 00:34:58;;;;;;;25.70;19.65;;;;;;;20.78;68.11;99510.84;4972777;28;20046;-71
2021/05/28 00:37:24;;;;;;;26.00;19.25;;;;;;;20.79;68.03;99511.69;4972406;28;20194;-70
2021/05/28 00:39:50;;;;;;;23.83;18.77;;;;;;;20.78;68.11;99516.34;5003447;28;20047;-70
2021/05/28 00:42:15;;;;;;;25.80;20.00;;;;;;;20.78;68.46;99516.34;4975604;28;20477;-69
2021/05/28 00:44:42;;;;;;;25.58;19.05;;;;;;;20.77;68.00;99520.16;4973548;28;20053;-69
2021/05/28 00:47:09;;;;;;;23.58;19.33;;;;;;;20.75;68.43;99522.28;4974830;28;20121;-69
2021/05/28 00:49:35;;;;;;;24.70;18.67;;;;;;;20.74;68.38;99523.34;4971963;28;20120;-69
2021/05/28 00:52:01;;;;;;;25.55;19.20;;;;;;;20.71;68.49;99526.53;4973546;28;20053;-70
2021/05/28 00:54:27;;;;;;;22.77;18.50;;;;;;;20.69;68.34;99526.75;4972140;28;20200;-69
2021/05/28 00:56:53;;;;;;;20.60;17.52;;;;;;;20.68;68.42;99526.97;4971718;28;20582;-71
2021/05/28 00:59:19;;;;;;;23.35;18.55;;;;;;;20.70;67.92;99519.38;4971898;28;20066;-69
2021/05/28 01:01:48;;;;;;;21.23;17.67;;;;;;;20.70;68.21;99516.63;4971534;28;20097;-71
2021/05/28 01:04:14;;;;;;;19.67;17.58;;;;;;;20.70;67.78;99533.09;4974829;28;20090;-70
2021/05/28 01:06:39;;;;;;;21.75;17.33;;;;;;;20.69;67.92;99536.88;4971707;28;20043;-69
2021/05/28 01:09:07;;;;;;;20.50;16.83;;;;;;;20.68;67.65;99526.97;4975559;28;20034;-70
2021/05/28 01:11:33;;;;;;;21.85;18.05;;;;;;;20.67;67.94;99531.63;4977009;28;20093;-71
2021/05/28 01:13:59;;;;;;;22.10;17.33;;;;;;;20.67;68.01;99531.63;5001172;28;20398;-70
2021/05/28 01:16:25;;;;;;;20.13;17.17;;;;;;;20.65;67.63;99528.25;4971436;28;20064;-69
2021/05/28 01:18:51;;;;;;;21.92;17.92;;;;;;;20.66;67.54;99523.63;4971352;28;20126;-70
2021/05/28 01:21:18;;;;;;;21.63;17.38;;;;;;;20.67;67.68;99519.81;4976816;28;20061;-70
2021/05/28 01:23:43;;;;;;;21.30;17.63;;;;;;;20.67;67.60;99522.56;4971407;28;20116;-70
2021/05/28 01:26:09;;;;;;;20.83;16.48;;;;;;;20.67;67.68;99519.81;4979411;28;20050;-70
2021/05/28 01:28:35;;;;;;;19.13;17.02;;;;;;;20.67;67.64;99514.31;4971498;28;20153;-70
2021/05/28 01:31:01;;;;;;;18.45;16.00;;;;;;;20.67;67.71;99509.66;4970420;28;20134;-70
2021/05/28 01:33:27;;;;;;;20.75;18.08;;;;;;;20.68;67.22;99515.97;4971029;28;20078;-69
2021/05/28 01:35:55;;;;;;;20.05;16.80;;;;;;;20.66;67.48;99513.47;4973987;28;20042;-69
2021/05/28 01:38:21;;;;;;;19.00;16.80;;;;;;;20.68;67.09;99511.31;4974165;28;20131;-68
2021/05/28 01:40:47;;;;;;;19.23;17.23;;;;;;;20.69;67.09;99524.00;4974115;28;20038;-71
2021/05/28 01:43:13;;;;;;;22.30;17.83;;;;;;;20.70;66.99;99527.59;4976510;28;20038;-69
2021/05/28 01:45:39;;;;;;;20.27;16.98;;;;;;;20.73;67.16;99529.06;4974218;28;20066;-70
2021/05/28 01:48:05;;;;;;;22.35;18.08;;;;;;;20.75;66.84;99516.78;4976679;28;20590;-70
2021/05/28 01:50:43;;;;;;;22.40;18.05;;;;;;;20.75;67.10;99511.28;4972076;28;20065;-70
2021/05/28 01:53:18;;;;;;;22.98;18.08;;;;;;;20.79;67.11;99511.69;4973733;28;20030;-70
2021/05/28 01:55:44;;;;;;;21.48;17.75;;;;;;;20.81;66.58;99510.41;4970913;28;20051;-70
2021/05/28 01:58:11;;;;;;;20.92;17.00;;;;;;;20.81;66.92;99507.66;4972151;28;20129;-70
2021/05/28 02:00:37;;;;;;;23.15;18.20;;;;;;;20.82;66.73;99512.09;4984685;28;20049;-70
2021/05/28 02:03:03;;;;;;;21.02;17.13;;;;;;;20.83;66.41;99513.78;4972183;28;20035;-71
2021/05/28 02:05:29;;;;;;;20.98;17.63;;;;;;;20.83;66.51;99519.25;4969580;28;20055;-70
2021/05/28 02:07:55;;;;;;;22.33;18.42;;;;;;;20.84;66.44;99526.47;4970810;28;20110;-69
2021/05/28 02:10:21;;;;;;;21.48;17.67;;;;;;;20.84;66.40;99523.72;4970726;28;20047;-69
2021/05/28 02:12:47;;;;;;;20.38;17.27;;;;;;;20.84;66.42;99520.97;4970619;28;20038;-70
2021/05/28 02:15:17;;;;;;;22.13;18.10;;;;;;;20.85;66.15;99514.41;4968881;28;20543;-69
2021/05/28 02:17:42;;;;;;;22.80;18.20;;;;;;;20.86;66.36;99518.00;4969115;28;20039;-71
2021/05/28 02:20:09;;;;;;;22.67;17.90;;;;;;;20.86;66.12;99518.81;4972735;28;20112;-70
2021/05/28 02:22:35;;;;;;;23.95;19.50;;;;;;;20.87;66.52;99519.66;5002798;28;20073;-70
2021/05/28 02:25:02;;;;;;;25.15;19.67;;;;;;;20.87;66.49;99517.75;4970130;28;20047;-70
2021/05/28 02:27:29;;;;;;;21.20;17.60;;;;;;;20.90;66.32;99514.56;4970362;28;20081;-70
2021/05/28 02:29:55;;;;;;;23.98;19.02;;;;;;;20.94;65.88;99509.47;4972173;28;20045;-71
2021/05/28 02:32:20;;;;;;;27.05;18.40;;;;;;;20.99;65.86;99500.56;4970104;28;20040;-71
2021/05/28 02:34:46;;;;;;;24.50;18.88;;;;;;;21.01;65.78;99503.94;4974312;28;20162;-71
2021/05/28 02:37:12;;;;;;;21.85;18.95;;;;;;;21.03;65.84;99501.81;4976784;28;20090;-70
2021/05/28 02:39:37;;;;;;;25.75;18.85;;;;;;;21.07;65.47;99508.56;4978658;28;20600;-71
2021/05/28 02:42:03;;;;;;;25.52;19.67;;;;;;;21.08;65.32;99502.81;4970082;28;20374;-70
2021/05/28 02:44:29;;;;;;;22.58;19.38;;;;;;;21.09;65.34;99489.91;4978566;28;20061;-69
2021/05/28 02:46:55;;;;;;;23.65;18.40;;;;;;;21.12;65.79;99500.47;4975263;28;20038;-71
2021/05/28 02:49:21;;;;;;;22.45;18.27;;;;;;;21.14;65.28;99509.34;4967823;28;20063;-70
2021/05/28 02:51:46;;;;;;;27.98;20.63;;;;;;;21.13;65.38;99496.63;4968361;28;20035;-70
2021/05/28 02:54:12;;;;;;;26.65;18.95;;;;;;;21.15;65.34;99500.03;4966120;28;20043;-70
2021/05/28 02:56:38;;;;;;;23.55;19.10;;;;;;;21.16;65.51;99496.19;4968425;28;20085;-70
2021/05/28 02:59:03;;;;;;;23.15;18.77;;;;;;;21.17;65.28;99500.63;4973262;28;20149;-70
2021/05/28 03:01:31;;;;;;;26.33;19.60;;;;;;;21.17;65.09;99498.75;4968690;28;20039;-71
2021/05/28 03:03:56;;;;;;;23.90;19.40;;;;;;;21.18;65.20;99494.91;4984771;28;20054;-72
2021/05/28 03:06:22;;;;;;;24.25;19.25;;;;;;;21.18;64.99;99499.56;4972186;28;20097;-71
2021/05/28 03:08:48;;;;;;;25.05;19.83;;;;;;;21.18;64.96;99494.06;4974410;28;20059;-70
2021/05/28 03:11:13;;;;;;;27.00;20.63;;;;;;;21.19;65.45;99498.50;4977527;28;20054;-69
2021/05/28 03:13:40;;;;;;;25.38;20.02;;;;;;;21.19;65.30;99495.75;4972194;28;20069;-70
2021/05/28 03:16:06;;;;;;;27.25;20.08;;;;;;;21.20;65.36;99491.94;4978208;28;20043;-72
2021/05/28 03:18:52;;;;;;;27.20;20.10;;;;;;;21.20;64.98;99489.19;4976855;28;20042;-71
2021/05/28 03:22:30;;;;;;;31.73;21.35;;;;;;;21.21;64.97;99493.63;4982566;28;20034;-71
2021/05/28 03:24:05;;;;;;;27.23;20.90;;;;;;;21.20;65.08;99498.25;4969134;28;20143;-71
2021/05/28 03:26:31;;;;;;;27.58;21.83;;;;;;;21.20;65.35;99492.78;4980076;28;21650;-71
2021/05/28 03:28:57;;;;;;;29.88;21.25;;;;;;;21.23;65.21;99494.22;4973219;28;20372;-71
2021/05/28 03:31:24;;;;;;;28.45;21.67;;;;;;;21.22;65.34;99495.31;4970134;28;20118;-71
2021/05/28 03:33:50;;;;;;;28.02;21.65;;;;;;;21.23;65.50;99502.47;4975344;28;20098;-72
2021/05/28 03:36:16;;;;;;;28.40;21.70;;;;;;;21.23;65.16;99505.22;4974748;28;20039;-72
2021/05/28 03:38:43;;;;;;;28.73;21.90;;;;;;;21.23;65.17;99509.91;4973345;28;20065;-69
2021/05/28 03:41:09;;;;;;;33.15;22.88;;;;;;;21.22;65.22;99500.81;4976560;28;20046;-71
2021/05/28 03:43:38;;;;;;;31.60;22.02;;;;;;;21.22;65.30;99500.81;4980055;28;20053;-71
2021/05/28 03:46:11;;;;;;;30.35;22.30;;;;;;;21.21;65.16;99504.63;4970911;28;20221;-72
2021/05/28 03:48:37;;;;;;;30.92;22.02;;;;;;;21.20;65.30;99506.50;4974831;28;20461;-71
2021/05/28 03:51:03;;;;;;;30.73;23.05;;;;;;;21.22;65.29;99506.31;4972751;28;20576;-72
2021/05/28 03:53:28;;;;;;;30.25;23.08;;;;;;;21.20;65.29;99508.44;4971168;28;20045;-71
2021/05/28 03:55:54;;;;;;;30.65;23.48;;;;;;;21.20;65.34;99508.44;4979372;28;20045;-71
2021/05/28 03:58:20;;;;;;;31.85;23.23;;;;;;;21.19;65.33;99506.75;4983786;28;20061;-70
2021/05/28 04:00:46;;;;;;;33.05;23.60;;;;;;;21.18;65.46;99511.41;4974347;28;20062;-71
2021/05/28 04:03:11;;;;;;;31.50;23.77;;;;;;;21.18;65.81;99516.06;4972444;28;20090;-70
2021/05/28 04:05:37;;;;;;;30.85;23.15;;;;;;;21.17;65.36;99508.88;4974031;28;20050;-71
2021/05/28 04:08:03;;;;;;;32.50;24.02;;;;;;;21.16;65.46;99513.53;4972184;28;20042;-72
2021/05/28 04:10:29;;;;;;;31.00;22.33;;;;;;;21.16;65.92;99520.94;4972707;28;20043;-71
2021/05/28 04:12:55;;;;;;;31.63;24.02;;;;;;;21.15;65.58;99522.00;4974694;28;20562;-72
2021/05/28 04:15:21;;;;;;;31.40;23.90;;;;;;;21.15;65.75;99516.50;4979683;28;20100;-72
2021/05/28 04:17:47;;;;;;;37.05;23.75;;;;;;;21.13;65.69;99524.13;4984868;28;20050;-71
2021/05/28 04:20:13;;;;;;;30.20;24.27;;;;;;;21.13;66.17;99529.63;4973741;28;20069;-71
2021/05/28 04:22:40;;;;;;;33.92;24.98;;;;;;;21.11;65.95;99531.78;4983052;28;20043;-72
2021/05/28 04:25:08;;;;;;;33.97;24.38;;;;;;;21.08;65.89;99533.06;4971014;28;20551;-70
2021/05/28 04:27:35;;;;;;;32.63;23.80;;;;;;;21.08;66.08;99537.72;4970594;28;20146;-71
2021/05/28 04:30:00;;;;;;;30.08;22.88;;;;;;;21.05;66.02;99533.50;4972774;28;20077;-71
2021/05/28 04:32:27;;;;;;;35.88;25.08;;;;;;;21.02;66.55;99541.34;4972164;28;20404;-71
2021/05/28 04:34:52;;;;;;;35.83;24.58;;;;;;;21.01;66.11;99534.16;4976496;28;20046;-71
2021/05/28 04:37:18;;;;;;;34.22;24.80;;;;;;;21.01;66.08;99536.91;4980763;28;20035;-70
2021/05/28 04:39:44;;;;;;;31.58;23.70;;;;;;;21.01;66.46;99532.25;4983125;28;20073;-74
2021/05/28 04:42:12;;;;;;;37.20;25.30;;;;;;;21.01;66.32;99529.50;4986254;28;20039;-70
2021/05/28 04:44:38;;;;;;;34.55;24.15;;;;;;;21.02;66.32;99533.09;4976242;28;20412;-71
2021/05/28 04:47:04;;;;;;;34.65;24.20;;;;;;;21.03;66.19;99526.56;4971684;28;20035;-71
2021/05/28 04:49:29;;;;;;;34.88;23.92;;;;;;;21.06;66.08;99523.34;4970429;28;20045;-71
2021/05/28 04:51:55;;;;;;;32.58;24.30;;;;;;;21.06;66.12;99518.72;4972594;28;20133;-71
2021/05/28 04:54:22;;;;;;;35.38;26.05;;;;;;;21.09;66.07;99529.22;4975025;28;20077;-69
2021/05/28 04:56:47;;;;;;;34.55;22.80;;;;;;;21.10;65.70;99516.34;4980369;28;20066;-72
2021/05/28 04:59:13;;;;;;;34.90;24.15;;;;;;;21.13;65.76;99518.63;4974424;28;20117;-71
2021/05/28 05:01:39;;;;;;;31.52;23.70;;;;;;;21.14;65.91;99514.84;4964375;28;20051;-72
2021/05/28 05:04:05;;;;;;;29.30;22.27;;;;;;;21.18;65.59;99505.06;4966759;28;20083;-75
2021/05/28 05:06:31;;;;;;;32.13;22.70;;;;;;;21.20;65.68;99508.44;4963444;28;20034;-71
2021/05/28 05:08:56;;;;;;;33.28;23.45;;;;;;;21.25;65.65;99511.38;4970464;28;20507;-70
2021/05/28 05:11:22;;;;;;;30.67;22.15;;;;;;;21.31;65.17;99515.94;4972715;28;20546;-70
2021/05/28 05:13:48;;;;;;;31.65;23.13;;;;;;;21.37;65.11;99515.09;4971396;28;20113;-73
2021/05/28 05:16:14;;;;;;;32.65;23.17;;;;;;;21.46;64.87;99512.03;4969847;28;20137;-71
2021/05/28 05:18:39;;;;;;;31.55;22.83;;;;;;;21.51;64.62;99520.47;4968309;28;21401;-70
2021/05/28 05:21:06;;;;;;;33.78;24.65;;;;;;;21.52;64.82;99523.00;4968851;28;20388;-71
2021/05/28 05:23:31;;;;;;;31.63;23.23;;;;;;;21.50;64.62;99527.91;4967913;28;20038;-71
2021/05/28 05:25:57;;;;;;;34.80;23.92;;;;;;;21.49;65.22;99517.09;4971145;28;20377;-71
2021/05/28 05:28:23;;;;;;;32.65;23.75;;;;;;;21.49;65.20;99525.34;4964275;28;20054;-74
2021/05/28 05:30:57;;;;;;;36.58;24.92;;;;;;;21.48;65.29;99526.44;4963033;28;20090;-73
2021/05/28 05:33:24;;;;;;;34.95;24.58;;;;;;;21.48;64.92;99515.44;4923785;28;20142;-74
2021/05/28 05:35:59;;;;;;;35.92;24.20;;;;;;;21.47;65.23;99511.84;4952490;28;20043;-71
2021/05/28 05:38:25;;;;;;;32.45;23.48;;;;;;;21.48;64.73;99504.44;4956468;28;20039;-74
2021/05/28 05:40:50;;;;;;;38.72;25.50;;;;;;;21.50;65.09;99496.78;4957889;28;20047;-74
2021/05/28 05:43:16;;;;;;;32.45;23.52;;;;;;;21.52;64.86;99500.16;4959278;28;20101;-72
2021/05/28 05:45:42;;;;;;;35.53;24.23;;;;;;;21.55;64.99;99499.69;4957434;28;20267;-72
2021/05/28 05:48:08;;;;;;;33.10;23.77;;;;;;;21.55;64.58;99505.22;4954946;28;20496;-73
2021/05/28 05:50:34;;;;;;;34.65;23.25;;;;;;;21.56;64.55;99502.22;4960609;28;20129;-71
2021/05/28 05:53:00;;;;;;;33.58;23.83;;;;;;;21.58;64.38;99504.75;4963088;28;20092;-73
2021/05/28 05:55:26;;;;;;;34.20;24.75;;;;;;;21.59;64.80;99495.44;4969871;28;20058;-73
2021/05/28 05:57:55;;;;;;;34.42;23.80;;;;;;;21.60;64.50;99497.94;4971993;28;20540;-73
2021/05/28 06:00:22;;;;;;;32.38;23.92;;;;;;;21.61;64.59;99498.78;4969337;28;20035;-73
2021/05/28 06:02:48;;;;;;;32.53;23.65;;;;;;;21.66;64.50;99490.69;4971403;28;20054;-77
2021/05/28 06:05:14;;;;;;;31.63;22.83;;;;;;;21.73;64.51;99496.97;4969192;28;20043;-74
2021/05/28 06:07:43;;;;;;;33.83;24.27;;;;;;;21.77;64.15;99487.19;4977382;28;20120;-76
2021/05/28 06:10:10;;;;;;;30.98;23.55;;;;;;;21.83;64.21;99490.94;4969058;28;20124;-73
2021/05/28 06:12:36;;;;;;;34.05;24.35;;;;;;;21.89;64.12;99487.28;4967617;28;20050;-73
2021/05/28 06:15:02;;;;;;;33.88;23.77;;;;;;;21.99;63.72;99484.00;4965494;28;20038;-73
2021/05/28 06:17:28;;;;;;;35.00;23.77;;;;;;;22.06;63.73;99476.50;4970357;28;20051;-76
2021/05/28 06:19:54;;;;;;;33.58;24.75;;;;;;;22.14;63.07;99473.47;4952306;28;20531;-72
2021/05/28 06:22:23;;;;;;;31.63;23.67;;;;;;;22.20;63.40;99483.56;4970016;28;20579;-73
2021/05/28 06:24:49;;;;;;;32.30;22.85;;;;;;;22.26;62.92;99479.84;4971946;28;20047;-72
2021/05/28 06:27:15;;;;;;;38.03;25.83;;;;;;;22.39;63.81;99474.19;4968797;28;20042;-77
2021/05/28 06:29:41;;;;;;;41.20;28.48;;;;;;;22.50;63.90;99468.97;4984090;28;20039;-79
2021/05/28 06:32:07;;;;;;;48.95;29.92;;;;;;;22.45;64.23;99466.91;4983509;28;20039;-76
2021/05/28 06:34:33;;;;;;;45.00;30.52;;;;;;;22.56;64.32;99473.53;4969341;28;20090;-77
2021/05/28 06:37:00;;;;;;;45.63;30.63;;;;;;;22.53;64.01;99476.78;4970122;28;20043;-77
2021/05/28 06:39:26;;;;;;;47.13;30.33;;;;;;;22.29;64.88;99473.88;4973970;28;20050;-82
2021/05/28 06:41:53;;;;;;;44.38;31.08;;;;;;;22.56;64.11;99474.38;4950270;28;20054;-76
2021/05/28 06:44:24;;;;;;;48.20;31.45;;;;;;;23.06;63.07;99481.50;4970722;28;20128;-77
2021/05/28 06:46:52;;;;;;;44.42;29.70;;;;;;;23.06;63.08;99473.22;4971793;28;20206;-76
2021/05/28 06:49:18;;;;;;;48.88;32.55;;;;;;;23.23;62.93;99482.50;4970211;28;20043;-78
2021/05/28 06:51:45;;;;;;;43.95;29.58;;;;;;;24.01;60.65;99485.97;4970946;28;20405;-77
2021/05/28 06:54:13;;;;;;;41.15;29.25;;;;;;;24.17;59.94;99478.84;4970453;28;20101;-79
2021/05/28 06:56:39;;;;;;;44.28;31.00;;;;;;;24.22;60.00;99471.50;4969834;28;20082;-77
2021/05/28 06:59:06;;;;;;;45.70;31.33;;;;;;;24.71;59.06;99480.22;4971112;28;20042;-75
2021/05/28 07:01:32;;;;;;;43.35;31.27;;;;;;;25.61;56.90;99472.91;4969875;28;20053;-76
2021/05/28 07:04:02;;;;;;;38.42;28.02;;;;;;;26.65;53.81;99472.06;5001311;28;20034;-77
2021/05/28 07:06:29;;;;;;;47.30;31.80;;;;;;;26.98;53.36;99470.19;4969220;28;20047;-77
2021/05/28 07:08:55;;;;;;;43.30;28.45;;;;;;;26.86;53.36;99477.84;4969583;28;20050;-78
2021/05/28 07:11:26;;;;;;;39.13;28.00;;;;;;;26.67;53.73;99477.38;4986649;28;20380;-77
2021/05/28 07:13:52;;;;;;;38.85;28.85;;;;;;;27.82;51.82;99479.78;4985114;28;20122;-77
2021/05/28 07:16:19;;;;;;;36.80;26.40;;;;;;;29.95;46.99;99484.13;4970571;28;20054;-77
2021/05/28 07:18:45;;;;;;;30.80;24.65;;;;;;;28.53;49.26;99479.31;5002618;28;20460;-77
2021/05/28 07:21:11;;;;;;;37.30;27.40;;;;;;;27.33;52.22;99477.19;4972579;28;20552;-78
2021/05/28 07:23:37;;;;;;;34.35;27.10;;;;;;;29.48;47.90;99473.31;4972032;28;20074;-77
2021/05/28 07:26:03;;;;;;;34.63;26.90;;;;;;;29.00;48.68;99481.94;4970303;28;20069;-76
2021/05/28 07:28:30;;;;;;;34.03;25.98;;;;;;;29.50;48.06;99479.41;4971256;28;20043;-78
2021/05/28 07:30:56;;;;;;;30.50;24.80;;;;;;;31.25;44.16;99484.00;4976979;28;22225;-76
2021/05/28 07:33:22;;;;;;;30.80;23.67;;;;;;;29.58;46.87;99484.44;4973048;28;20057;-77
2021/05/28 07:35:48;;;;;;;29.52;24.33;;;;;;;29.29;47.02;99478.63;4970095;28;20416;-79
2021/05/28 07:38:14;;;;;;;29.63;23.40;;;;;;;28.41;48.78;99471.22;4986903;28;20575;-77
2021/05/28 07:40:40;;;;;;;27.20;21.08;;;;;;;27.90;49.85;99482.06;4969427;28;20134;-79
2021/05/28 07:43:06;;;;;;;26.20;20.35;;;;;;;27.47;50.50;99477.59;4954637;28;20042;-78
2021/05/28 07:45:33;;;;;;;25.75;20.30;;;;;;;27.64;50.09;99467.13;4971782;28;20062;-82
2021/05/28 07:47:59;;;;;;;28.45;22.25;;;;;;;27.11;51.68;99475.34;5000629;28;20039;-80
2021/05/28 07:50:25;;;;;;;34.58;22.88;;;;;;;26.96;52.27;99466.84;4942190;28;20400;-77
2021/05/28 07:52:51;;;;;;;27.88;21.95;;;;;;;27.21;51.67;99474.59;4971961;28;20055;-78
2021/05/28 07:55:17;;;;;;;39.15;22.67;;;;;;;27.69;50.64;99469.13;4972999;28;20109;-77
2021/05/28 07:57:43;;;;;;;29.65;20.70;;;;;;;30.46;45.36;99483.13;4973627;28;20062;-79
2021/05/28 08:00:10;;;;;;;28.58;20.60;;;;;;;29.34;47.08;99477.75;4973414;28;20042;-78
2021/05/28 08:02:36;;;;;;;29.00;20.50;;;;;;;28.75;47.89;99471.56;4975475;28;20076;-80
2021/05/28 08:05:03;;;;;;;32.83;20.63;;;;;;;28.56;48.45;99467.63;4971687;28;20602;-72
2021/05/28 08:07:29;;;;;;;25.05;19.00;;;;;;;28.37;49.15;99470.03;4972807;28;20480;-76
2021/05/28 08:09:55;;;;;;;28.42;19.75;;;;;;;27.94;49.70;99472.06;4973148;28;20042;-75
2021/05/28 08:44:26;;;;;;;22.80;16.67;;;;;;;32.83;39.39;99457.06;6017899;22;2995350;-72
2021/05/28 08:46:52;;;;;;;19.60;15.80;;;;;;;37.85;31.50;99457.41;6147481;23;20468;-73
2021/05/28 08:49:23;;;;;;;19.92;13.93;;;;;;;38.26;29.27;99458.72;6148085;23;20116;-78
2021/05/28 08:51:49;;;;;;;17.38;14.10;;;;;;;36.57;33.52;99447.56;6148518;23;20031;-74
2021/05/28 08:54:15;;;;;;;20.02;14.55;;;;;;;38.79;30.19;99446.75;6147951;23;20167;-74
2021/05/28 08:56:40;;;;;;;18.02;13.85;;;;;;;37.54;30.82;99443.56;6147821;23;20056;-75
2021/05/28 08:59:07;;;;;;;15.40;12.75;;;;;;;38.73;30.27;99447.31;6145461;23;20347;-75
2021/05/28 09:01:33;;;;;;;28.00;13.27;;;;;;;36.06;32.56;99426.53;6147808;23;20452;-83
2021/05/28 09:04:02;;;;;;;22.58;20.38;;;;;;;35.85;32.64;99436.69;6126897;23;20021;-82
2021/05/28 09:06:44;;;;;;;21.10;15.35;;;;;;;31.23;38.65;99431.22;6143428;23;20069;-87
2021/05/28 09:09:11;;;;;;;;;;;;;;;30.50;39.79;99428.41;6175866;23;20032;-84
2021/05/28 09:11:56;;;;;;;15.02;13.48;;;;;;;29.98;39.99;99422.22;6178752;23;19920;-83
2021/05/28 09:14:51;;;;;;;;;;;;;;;;;;;;;
2021/05/28 09:17:19;;;;;;;18.10;13.10;;;;;;;30.36;40.25;99422.63;6178470;23;20021;-85
2021/05/28 09:19:56;;;;;;;21.27;14.43;;;;;;;30.49;38.76;99419.16;6175078;23;20065;-85
2021/05/28 09:22:38;;;;;;;17.00;15.27;;;;;;;30.37;39.72;99417.88;6168653;23;20125;-82
2021/05/28 09:25:18;;;;;;;16.15;14.48;;;;;;;31.14;39.30;99418.19;6098723;23;20022;-84
2021/05/28 09:27:51;;;;;;;15.07;12.30;;;;;;;31.16;37.42;99418.75;6165615;23;20052;-83
2021/05/28 09:30:22;;;;;;;16.75;13.60;;;;;;;31.75;36.92;99414.81;6170221;23;20035;-82
2021/05/28 09:32:50;;;;;;;16.55;12.85;;;;;;;32.20;35.58;99418.19;6164507;23;20028;-85
2021/05/28 09:35:32;;;;;;;15.50;12.18;;;;;;;29.89;39.42;99412.75;6121420;23;20048;-84
2021/05/28 09:38:03;;;;;;;16.15;13.50;;;;;;;28.40;42.47;99408.34;6142253;23;20024;-83
2021/05/28 09:40:32;;;;;;;17.15;12.65;;;;;;;27.83;42.87;99410.06;6165786;23;20092;-85
2021/05/28 09:43:11;;;;;;;14.90;13.23;;;;;;;28.11;44.05;99411.53;6143969;23;20012;-86
2021/05/28 09:45:41;;;;;;;16.40;12.80;;;;;;;27.68;43.23;99417.44;6140888;23;20017;-86
2021/05/28 09:48:16;;;;;;;16.98;13.38;;;;;;;27.68;43.75;99411.88;6119558;23;20032;-85
2021/05/28 09:50:51;;;;;;;17.38;14.25;;;;;;;27.52;44.79;99408.19;6146384;23;20021;-84
2021/05/28 09:53:41;;;;;;;17.00;13.70;;;;;;;27.59;44.70;99406.84;6124436;23;20017;-85
2021/05/28 09:56:30;;;;;;;16.08;13.23;;;;;;;26.12;46.85;99404.38;6100179;23;20021;-85
2021/05/28 09:59:04;;;;;;;21.10;13.93;;;;;;;26.23;48.13;99402.56;6150147;23;20041;-84
2021/05/28 10:01:31;;;;;;;17.80;13.27;;;;;;;26.58;46.36;99399.38;6101778;23;20085;-85
2021/05/28 10:04:05;;;;;;;29.23;14.85;;;;;;;26.48;46.99;99406.75;6175355;23;20006;-82
2021/05/28 10:06:40;;;;;;;19.55;14.10;;;;;;;26.03;47.32;99397.63;6083692;23;20031;-85
2021/05/28 10:09:10;;;;;;;29.02;16.02;;;;;;;25.23;49.40;99405.38;6037661;23;20007;-85
2021/05/28 10:11:38;;;;;;;20.98;17.83;;;;;;;25.21;48.89;99402.00;6013771;23;20082;-84
2021/05/28 10:14:05;;;;;;;23.23;15.07;;;;;;;24.78;50.23;99392.44;6086450;23;20019;-86
2021/05/28 10:16:31;;;;;;;18.02;14.52;;;;;;;24.50;51.10;99395.28;6054992;23;20031;-85
2021/05/28 10:18:58;;;;;;;18.13;14.15;;;;;;;24.28;50.84;99387.66;6035504;23;20023;-86
2021/05/28 10:21:26;;;;;;;20.55;14.52;;;;;;;23.97;51.82;99390.88;6088944;23;20035;-85
2021/05/28 10:23:53;;;;;;;22.75;15.50;;;;;;;24.03;51.37;99392.69;5968352;23;20033;-83
2021/05/28 10:26:30;;;;;;;29.90;15.75;;;;;;;24.23;52.04;99395.00;6060412;23;20071;-84
2021/05/28 10:28:56;;;;;;;21.75;15.27;;;;;;;23.70;52.27;99385.94;6055938;23;20023;-85
2021/05/28 10:31:58;;;;;;;26.25;16.13;;;;;;;23.41;53.75;99395.19;6080529;23;20085;-88
2021/05/28 10:34:28;;;;;;;23.88;16.30;;;;;;;23.48;54.29;99387.63;6052505;23;20030;-83
2021/05/28 10:36:57;;;;;;;25.25;17.08;;;;;;;23.19;55.12;99395.78;6034364;23;20029;-82
2021/05/28 10:39:25;;;;;;;25.63;17.10;;;;;;;22.87;55.52;99385.06;6034504;23;20110;-83
2021/05/28 10:41:56;;;;;;;33.35;16.75;;;;;;;22.64;56.38;99387.78;6085708;23;20033;-86
2021/05/28 10:44:26;;;;;;;31.48;17.63;;;;;;;22.57;57.00;99389.81;6062235;23;20010;-88
2021/05/28 10:47:20;;;;;;;22.73;15.80;;;;;;;22.80;56.04;99389.84;6035164;23;20074;-83
2021/05/28 10:49:52;;;;;;;34.00;16.85;;;;;;;22.81;56.44;99388.75;6054315;23;20087;-85
2021/05/28 10:52:34;;;;;;;19.37;15.40;;;;;;;22.69;56.20;99387.91;6079743;23;20023;-85
2021/05/28 10:55:13;;;;;;;21.92;15.50;;;;;;;22.63;56.29;99384.19;6037685;23;20007;-84
2021/05/28 10:57:49;;;;;;;27.42;15.52;;;;;;;22.71;56.12;99384.94;6039391;23;20023;-86
2021/05/28 11:00:30;;;;;;;19.38;14.65;;;;;;;22.61;55.07;99382.75;6037234;23;20054;-88
2021/05/28 11:03:01;;;;;;;24.15;15.85;;;;;;;22.59;55.63;99387.63;6034762;23;20069;-85
2021/05/28 11:05:39;;;;;;;19.08;13.02;;;;;;;22.46;54.23;99390.63;6036494;23;20109;-85
2021/05/28 11:08:37;;;;;;;20.88;13.35;;;;;;;22.36;53.39;99381.00;6034617;23;20022;-84
2021/05/28 11:11:05;;;;;;;22.25;12.65;;;;;;;22.44;53.13;99382.56;6052840;23;20125;-85
2021/05/28 11:13:31;;;;;;;15.38;12.02;;;;;;;22.52;53.13;99373.97;6081874;23;20098;-83
2021/05/28 11:15:59;;;;;;;21.38;13.07;;;;;;;22.84;52.47;99381.94;6084794;23;20026;-89
2021/05/28 11:18:30;;;;;;;17.48;12.20;;;;;;;22.95;51.27;99372.03;6059882;23;20086;-86
2021/05/28 11:21:14;;;;;;;24.75;11.98;;;;;;;23.05;51.03;99381.38;6012612;23;20027;-85
2021/05/28 11:23:42;;;;;;;18.33;11.75;;;;;;;23.05;51.29;99377.78;6060378;23;20018;-83
2021/05/28 11:26:22;;;;;;;18.85;12.00;;;;;;;23.03;51.41;99375.25;6055427;23;20054;-87
2021/05/28 11:28:55;;;;;;;23.33;10.68;;;;;;;22.88;50.06;99367.44;6029131;23;20025;-87
2021/05/28 11:31:24;;;;;;;20.30;13.18;;;;;;;22.84;49.91;99371.75;6033647;23;20102;-82
2021/05/28 11:33:58;;;;;;;18.92;11.30;;;;;;;23.12;50.15;99373.00;6085690;23;20006;-84
2021/05/28 11:36:27;;;;;;;18.15;10.27;;;;;;;23.23;48.28;99374.09;6087837;23;20019;-85
2021/05/28 11:38:57;;;;;;;18.60;9.85;;;;;;;23.45;48.88;99382.56;6062178;23;20027;-87
2021/05/28 11:41:51;;;;;;;14.23;10.52;;;;;;;23.49;48.03;99372.72;6041196;23;20002;-87
2021/05/28 11:44:22;;;;;;;25.20;12.73;;;;;;;23.72;49.35;99377.38;6035731;23;20031;-86
2021/05/28 11:46:51;;;;;;;27.80;13.00;;;;;;;23.87;49.41;99374.94;6039963;23;20027;-86
2021/05/28 11:49:20;;;;;;;19.58;12.18;;;;;;;24.38;47.64;99369.56;6039463;23;20022;-85
2021/05/28 11:51:56;;;;;;;15.85;10.65;;;;;;;24.76;47.14;99366.13;6064177;23;20034;-86
2021/05/28 11:54:28;;;;;;;18.60;12.05;;;;;;;25.30;45.92;99362.84;6035192;23;20023;-87
2021/05/28 11:56:55;;;;;;;13.73;11.63;;;;;;;26.55;42.18;99358.31;6084521;23;20038;-83